sensor_id;sensor_type;location;lat;lon;timestamp;temperature;humidity
23629;DHT22;11991;57.150;-2.134;2023-02-12T00:00:52;9.90;99.90
23629;DHT22;11991;57.150;-2.134;2023-02-12T00:03:19;9.80;99.90
23629;DHT22;11991;57.150;-2.134;2023-02-12T00:05:46;9.80;99.90
23629;DHT22;11991;57.150;-2.134;2023-02-12T00:08:14;9.90;99.90
23629;DHT22;11991;57.150;-2.134;2023-02-12T00:10:42;9.90;99.90
23629;DHT22;11991;57.150;-2.134;2023-02-12T00:13:11;9.90;99.90
23629;DHT22;11991;57.150;-2.134;2023-02-12T00:15:39;9.90;99.90
23629;DHT22;11991;57.150;-2.134;2023-02-12T00:18:07;10.00;99.90
23629;DHT22;11991;57.150;-2.134;2023-02-12T00:20:35;10.00;99.90
23629;DHT22;11991;57.150;-2.134;2023-02-12T00:23:02;10.00;99.90
23629;DHT22;11991;57.150;-2.134;2023-02-12T00:25:30;10.00;99.90
23629;DHT22;11991;57.150;-2.134;2023-02-12T00:27:57;10.00;99.90
23629;DHT22;11991;57.150;-2.134;2023-02-12T00:30:25;10.00;99.90
23629;DHT22;11991;57.150;-2.134;2023-02-12T00:32:54;10.00;99.90
23629;DHT22;11991;57.150;-2.134;2023-02-12T00:35:21;10.00;99.90
23629;DHT22;11991;57.150;-2.134;2023-02-12T00:37:49;10.00;99.90
23629;DHT22;11991;57.150;-2.134;2023-02-12T00:40:16;10.00;99.90
23629;DHT22;11991;57.150;-2.134;2023-02-12T00:42:44;10.00;99.90
23629;DHT22;11991;57.150;-2.134;2023-02-12T00:45:11;10.00;99.90
23629;DHT22;11991;57.150;-2.134;2023-02-12T00:47:38;10.00;99.90
23629;DHT22;11991;57.150;-2.134;2023-02-12T00:50:06;10.00;99.90
23629;DHT22;11991;57.150;-2.134;2023-02-12T00:52:33;10.00;99.90
23629;DHT22;11991;57.150;-2.134;2023-02-12T00:55:00;10.00;99.90
23629;DHT22;11991;57.150;-2.134;2023-02-12T00:57:27;10.00;99.90
23629;DHT22;11991;57.150;-2.134;2023-02-12T00:59:55;9.90;99.90
23629;DHT22;11991;57.150;-2.134;2023-02-12T01:02:22;10.00;99.90
23629;DHT22;11991;57.150;-2.134;2023-02-12T01:04:50;10.00;99.90
23629;DHT22;11991;57.150;-2.134;2023-02-12T01:07:17;9.90;99.90
23629;DHT22;11991;57.150;-2.134;2023-02-12T01:09:44;9.90;99.90
23629;DHT22;11991;57.150;-2.134;2023-02-12T01:12:11;9.90;99.90
23629;DHT22;11991;57.150;-2.134;2023-02-12T01:14:39;9.90;99.90
23629;DHT22;11991;57.150;-2.134;2023-02-12T01:17:07;9.80;99.90
23629;DHT22;11991;57.150;-2.134;2023-02-12T01:19:35;9.80;99.90
23629;DHT22;11991;57.150;-2.134;2023-02-12T01:22:02;9.80;99.90
23629;DHT22;11991;57.150;-2.134;2023-02-12T01:24:29;9.80;99.90
23629;DHT22;11991;57.150;-2.134;2023-02-12T01:26:57;9.80;99.90
23629;DHT22;11991;57.150;-2.134;2023-02-12T01:29:24;9.80;99.90
23629;DHT22;11991;57.150;-2.134;2023-02-12T01:31:51;9.80;99.90
23629;DHT22;11991;57.150;-2.134;2023-02-12T01:34:19;9.80;99.90
23629;DHT22;11991;57.150;-2.134;2023-02-12T01:36:46;9.70;99.90
23629;DHT22;11991;57.150;-2.134;2023-02-12T01:39:13;9.70;99.90
23629;DHT22;11991;57.150;-2.134;2023-02-12T01:41:43;9.70;99.90
23629;DHT22;11991;57.150;-2.134;2023-02-12T01:44:20;9.70;99.90
23629;DHT22;11991;57.150;-2.134;2023-02-12T01:47:05;9.70;99.90
23629;DHT22;11991;57.150;-2.134;2023-02-12T01:49:34;9.70;99.90
23629;DHT22;11991;57.150;-2.134;2023-02-12T01:52:27;9.70;99.90
23629;DHT22;11991;57.150;-2.134;2023-02-12T01:54:59;9.70;99.90
23629;DHT22;11991;57.150;-2.134;2023-02-12T01:57:29;9.70;99.90
23629;DHT22;11991;57.150;-2.134;2023-02-12T01:59:59;9.60;99.90
23629;DHT22;11991;57.150;-2.134;2023-02-12T02:02:28;9.60;99.90
23629;DHT22;11991;57.150;-2.134;2023-02-12T02:05:02;9.60;99.90
23629;DHT22;11991;57.150;-2.134;2023-02-12T02:07:30;9.60;99.90
23629;DHT22;11991;57.150;-2.134;2023-02-12T02:09:58;9.60;99.90
23629;DHT22;11991;57.150;-2.134;2023-02-12T02:12:27;9.60;99.90
23629;DHT22;11991;57.150;-2.134;2023-02-12T02:15:15;9.60;99.90
23629;DHT22;11991;57.150;-2.134;2023-02-12T02:26:22;9.50;99.90
23629;DHT22;11991;57.150;-2.134;2023-02-12T02:32:04;9.40;99.90
23629;DHT22;11991;57.150;-2.134;2023-02-12T02:34:46;9.40;99.90
23629;DHT22;11991;57.150;-2.134;2023-02-12T02:40:18;9.30;99.90
23629;DHT22;11991;57.150;-2.134;2023-02-12T02:42:56;9.30;99.90
23629;DHT22;11991;57.150;-2.134;2023-02-12T02:48:28;9.30;99.90
23629;DHT22;11991;57.150;-2.134;2023-02-12T02:51:14;9.30;99.90
23629;DHT22;11991;57.150;-2.134;2023-02-12T02:53:50;9.20;99.90
23629;DHT22;11991;57.150;-2.134;2023-02-12T02:56:20;9.30;99.90
23629;DHT22;11991;57.150;-2.134;2023-02-12T02:59:00;9.30;99.90
23629;DHT22;11991;57.150;-2.134;2023-02-12T03:01:33;9.30;99.90
23629;DHT22;11991;57.150;-2.134;2023-02-12T03:04:03;9.20;99.90
23629;DHT22;11991;57.150;-2.134;2023-02-12T03:06:36;9.20;99.90
23629;DHT22;11991;57.150;-2.134;2023-02-12T03:11:46;9.20;99.90
23629;DHT22;11991;57.150;-2.134;2023-02-12T03:17:09;9.30;99.90
23629;DHT22;11991;57.150;-2.134;2023-02-12T03:19:45;9.30;99.90
23629;DHT22;11991;57.150;-2.134;2023-02-12T03:22:22;9.30;99.90
23629;DHT22;11991;57.150;-2.134;2023-02-12T03:27:43;9.20;99.90
23629;DHT22;11991;57.150;-2.134;2023-02-12T03:30:12;9.30;99.90
23629;DHT22;11991;57.150;-2.134;2023-02-12T03:32:59;9.20;99.90
23629;DHT22;11991;57.150;-2.134;2023-02-12T03:35:57;9.20;99.90
23629;DHT22;11991;57.150;-2.134;2023-02-12T03:38:44;9.20;99.90
23629;DHT22;11991;57.150;-2.134;2023-02-12T03:41:19;9.20;99.90
23629;DHT22;11991;57.150;-2.134;2023-02-12T03:44:20;9.20;99.90
23629;DHT22;11991;57.150;-2.134;2023-02-12T03:46:57;9.20;99.90
23629;DHT22;11991;57.150;-2.134;2023-02-12T03:52:28;9.20;99.90
23629;DHT22;11991;57.150;-2.134;2023-02-12T03:54:56;9.20;99.90
23629;DHT22;11991;57.150;-2.134;2023-02-12T03:57:26;9.20;99.90
23629;DHT22;11991;57.150;-2.134;2023-02-12T03:59:58;9.20;99.90
23629;DHT22;11991;57.150;-2.134;2023-02-12T04:02:40;9.20;99.90
23629;DHT22;11991;57.150;-2.134;2023-02-12T04:05:15;9.30;99.90
23629;DHT22;11991;57.150;-2.134;2023-02-12T04:07:43;9.20;99.90
23629;DHT22;11991;57.150;-2.134;2023-02-12T04:10:10;9.20;99.90
23629;DHT22;11991;57.150;-2.134;2023-02-12T04:12:51;9.30;99.90
23629;DHT22;11991;57.150;-2.134;2023-02-12T04:18:06;9.30;99.90
23629;DHT22;11991;57.150;-2.134;2023-02-12T04:26:41;9.30;99.90
23629;DHT22;11991;57.150;-2.134;2023-02-12T04:29:16;9.30;99.90
23629;DHT22;11991;57.150;-2.134;2023-02-12T04:32:11;9.30;99.90
23629;DHT22;11991;57.150;-2.134;2023-02-12T04:37:40;9.30;99.90
23629;DHT22;11991;57.150;-2.134;2023-02-12T04:40:12;9.20;99.90
23629;DHT22;11991;57.150;-2.134;2023-02-12T04:42:44;9.30;99.90
23629;DHT22;11991;57.150;-2.134;2023-02-12T04:45:14;9.30;99.90
23629;DHT22;11991;57.150;-2.134;2023-02-12T04:47:42;9.30;99.90
23629;DHT22;11991;57.150;-2.134;2023-02-12T04:50:09;9.30;99.90
23629;DHT22;11991;57.150;-2.134;2023-02-12T04:52:36;9.30;99.90
23629;DHT22;11991;57.150;-2.134;2023-02-12T04:55:04;9.30;99.90
23629;DHT22;11991;57.150;-2.134;2023-02-12T04:57:31;9.30;99.90
23629;DHT22;11991;57.150;-2.134;2023-02-12T04:59:58;9.30;99.90
23629;DHT22;11991;57.150;-2.134;2023-02-12T05:02:25;9.30;99.90
23629;DHT22;11991;57.150;-2.134;2023-02-12T05:04:52;9.30;99.90
23629;DHT22;11991;57.150;-2.134;2023-02-12T05:07:20;9.30;99.90
23629;DHT22;11991;57.150;-2.134;2023-02-12T05:09:47;9.30;99.90
23629;DHT22;11991;57.150;-2.134;2023-02-12T05:12:14;9.20;99.90
23629;DHT22;11991;57.150;-2.134;2023-02-12T05:14:41;9.20;99.90
23629;DHT22;11991;57.150;-2.134;2023-02-12T05:17:08;9.20;99.90
23629;DHT22;11991;57.150;-2.134;2023-02-12T05:19:35;9.20;99.90
23629;DHT22;11991;57.150;-2.134;2023-02-12T05:22:02;9.20;99.90
23629;DHT22;11991;57.150;-2.134;2023-02-12T05:24:30;9.20;99.90
23629;DHT22;11991;57.150;-2.134;2023-02-12T05:26:57;9.20;99.90
23629;DHT22;11991;57.150;-2.134;2023-02-12T05:29:24;9.20;99.90
23629;DHT22;11991;57.150;-2.134;2023-02-12T05:31:51;9.20;99.90
23629;DHT22;11991;57.150;-2.134;2023-02-12T05:34:18;9.20;99.90
23629;DHT22;11991;57.150;-2.134;2023-02-12T05:36:46;9.20;99.90
23629;DHT22;11991;57.150;-2.134;2023-02-12T05:39:13;9.20;99.90
23629;DHT22;11991;57.150;-2.134;2023-02-12T05:41:40;9.20;99.90
23629;DHT22;11991;57.150;-2.134;2023-02-12T05:44:08;9.20;99.90
23629;DHT22;11991;57.150;-2.134;2023-02-12T05:46:37;9.20;99.90
23629;DHT22;11991;57.150;-2.134;2023-02-12T05:49:05;9.10;99.90
23629;DHT22;11991;57.150;-2.134;2023-02-12T05:51:32;9.20;99.90
23629;DHT22;11991;57.150;-2.134;2023-02-12T05:54:02;9.10;99.90
23629;DHT22;11991;57.150;-2.134;2023-02-12T05:56:35;9.10;99.90
23629;DHT22;11991;57.150;-2.134;2023-02-12T05:59:05;9.00;99.90
23629;DHT22;11991;57.150;-2.134;2023-02-12T06:01:38;8.90;99.90
23629;DHT22;11991;57.150;-2.134;2023-02-12T06:04:09;8.90;99.90
23629;DHT22;11991;57.150;-2.134;2023-02-12T06:06:36;8.80;99.90
23629;DHT22;11991;57.150;-2.134;2023-02-12T06:09:04;8.80;99.90
23629;DHT22;11991;57.150;-2.134;2023-02-12T06:11:31;8.70;99.90
23629;DHT22;11991;57.150;-2.134;2023-02-12T06:14:01;8.70;99.90
23629;DHT22;11991;57.150;-2.134;2023-02-12T06:16:29;8.60;99.90
23629;DHT22;11991;57.150;-2.134;2023-02-12T06:18:57;8.60;99.90
23629;DHT22;11991;57.150;-2.134;2023-02-12T06:21:25;8.60;99.90
23629;DHT22;11991;57.150;-2.134;2023-02-12T06:23:52;8.50;99.90
23629;DHT22;11991;57.150;-2.134;2023-02-12T06:26:20;8.40;99.90
23629;DHT22;11991;57.150;-2.134;2023-02-12T06:28:48;8.40;99.90
23629;DHT22;11991;57.150;-2.134;2023-02-12T06:31:30;8.40;99.90
23629;DHT22;11991;57.150;-2.134;2023-02-12T06:34:00;8.40;99.90
23629;DHT22;11991;57.150;-2.134;2023-02-12T06:36:28;8.30;99.90
23629;DHT22;11991;57.150;-2.134;2023-02-12T06:38:56;8.30;99.90
23629;DHT22;11991;57.150;-2.134;2023-02-12T06:41:23;8.30;99.90
23629;DHT22;11991;57.150;-2.134;2023-02-12T06:43:50;8.30;99.90
23629;DHT22;11991;57.150;-2.134;2023-02-12T06:46:18;8.20;99.90
23629;DHT22;11991;57.150;-2.134;2023-02-12T06:48:45;8.20;99.90
23629;DHT22;11991;57.150;-2.134;2023-02-12T06:51:15;8.20;99.90
23629;DHT22;11991;57.150;-2.134;2023-02-12T06:53:44;8.20;99.90
23629;DHT22;11991;57.150;-2.134;2023-02-12T06:56:12;8.10;99.90
23629;DHT22;11991;57.150;-2.134;2023-02-12T06:58:41;8.10;99.90
23629;DHT22;11991;57.150;-2.134;2023-02-12T07:01:18;8.10;99.90
23629;DHT22;11991;57.150;-2.134;2023-02-12T07:03:51;8.00;99.90
23629;DHT22;11991;57.150;-2.134;2023-02-12T07:06:19;8.00;99.90
23629;DHT22;11991;57.150;-2.134;2023-02-12T07:08:47;8.00;99.90
23629;DHT22;11991;57.150;-2.134;2023-02-12T07:11:15;8.00;99.90
23629;DHT22;11991;57.150;-2.134;2023-02-12T07:13:43;8.00;99.90
23629;DHT22;11991;57.150;-2.134;2023-02-12T07:16:13;7.90;99.90
23629;DHT22;11991;57.150;-2.134;2023-02-12T07:18:41;7.90;99.90
23629;DHT22;11991;57.150;-2.134;2023-02-12T07:21:10;7.90;99.90
23629;DHT22;11991;57.150;-2.134;2023-02-12T07:23:37;7.90;99.90
23629;DHT22;11991;57.150;-2.134;2023-02-12T07:26:07;7.80;99.90
23629;DHT22;11991;57.150;-2.134;2023-02-12T07:28:35;7.80;99.90
23629;DHT22;11991;57.150;-2.134;2023-02-12T07:31:18;7.80;99.90
23629;DHT22;11991;57.150;-2.134;2023-02-12T07:33:46;7.80;99.90
23629;DHT22;11991;57.150;-2.134;2023-02-12T07:36:16;7.70;99.90
23629;DHT22;11991;57.150;-2.134;2023-02-12T07:38:44;7.70;99.90
23629;DHT22;11991;57.150;-2.134;2023-02-12T07:41:20;7.70;99.90
23629;DHT22;11991;57.150;-2.134;2023-02-12T07:43:53;7.70;99.90
23629;DHT22;11991;57.150;-2.134;2023-02-12T07:46:25;7.60;99.90
23629;DHT22;11991;57.150;-2.134;2023-02-12T07:48:58;7.60;99.90
23629;DHT22;11991;57.150;-2.134;2023-02-12T07:51:26;7.60;99.90
23629;DHT22;11991;57.150;-2.134;2023-02-12T07:53:54;7.50;99.90
23629;DHT22;11991;57.150;-2.134;2023-02-12T07:56:24;7.50;99.90
23629;DHT22;11991;57.150;-2.134;2023-02-12T07:58:52;7.50;99.90
23629;DHT22;11991;57.150;-2.134;2023-02-12T08:01:25;7.50;99.90
23629;DHT22;11991;57.150;-2.134;2023-02-12T08:03:54;7.50;99.90
23629;DHT22;11991;57.150;-2.134;2023-02-12T08:06:25;7.50;99.90
23629;DHT22;11991;57.150;-2.134;2023-02-12T08:08:54;7.50;99.90
23629;DHT22;11991;57.150;-2.134;2023-02-12T08:11:22;7.40;99.90
23629;DHT22;11991;57.150;-2.134;2023-02-12T08:13:50;7.40;99.90
23629;DHT22;11991;57.150;-2.134;2023-02-12T08:16:22;7.40;99.90
23629;DHT22;11991;57.150;-2.134;2023-02-12T08:18:50;7.40;99.90
23629;DHT22;11991;57.150;-2.134;2023-02-12T08:21:20;7.40;99.90
23629;DHT22;11991;57.150;-2.134;2023-02-12T08:23:48;7.40;99.90
23629;DHT22;11991;57.150;-2.134;2023-02-12T08:26:30;7.40;99.90
23629;DHT22;11991;57.150;-2.134;2023-02-12T08:29:03;7.40;99.90
23629;DHT22;11991;57.150;-2.134;2023-02-12T08:31:33;7.40;99.90
23629;DHT22;11991;57.150;-2.134;2023-02-12T08:34:01;7.40;99.90
23629;DHT22;11991;57.150;-2.134;2023-02-12T08:36:36;7.40;99.90
23629;DHT22;11991;57.150;-2.134;2023-02-12T08:39:05;7.50;99.90
23629;DHT22;11991;57.150;-2.134;2023-02-12T08:41:33;7.50;99.90
23629;DHT22;11991;57.150;-2.134;2023-02-12T08:44:02;7.50;99.90
23629;DHT22;11991;57.150;-2.134;2023-02-12T08:46:33;7.50;99.90
23629;DHT22;11991;57.150;-2.134;2023-02-12T08:49:06;7.50;99.90
23629;DHT22;11991;57.150;-2.134;2023-02-12T08:51:37;7.50;99.90
23629;DHT22;11991;57.150;-2.134;2023-02-12T08:54:07;7.60;99.90
23629;DHT22;11991;57.150;-2.134;2023-02-12T08:56:36;7.60;99.90
23629;DHT22;11991;57.150;-2.134;2023-02-12T08:59:04;7.60;99.90
23629;DHT22;11991;57.150;-2.134;2023-02-12T09:01:34;7.60;99.90
23629;DHT22;11991;57.150;-2.134;2023-02-12T09:04:05;7.60;99.90
23629;DHT22;11991;57.150;-2.134;2023-02-12T09:06:33;7.70;99.90
23629;DHT22;11991;57.150;-2.134;2023-02-12T09:09:01;7.80;99.90
23629;DHT22;11991;57.150;-2.134;2023-02-12T09:11:29;7.80;99.90
23629;DHT22;11991;57.150;-2.134;2023-02-12T09:14:02;7.80;99.90
23629;DHT22;11991;57.150;-2.134;2023-02-12T09:16:32;7.90;99.90
23629;DHT22;11991;57.150;-2.134;2023-02-12T09:19:00;7.90;99.90
23629;DHT22;11991;57.150;-2.134;2023-02-12T09:21:27;7.90;99.90
23629;DHT22;11991;57.150;-2.134;2023-02-12T09:23:55;8.00;99.90
23629;DHT22;11991;57.150;-2.134;2023-02-12T09:26:24;8.00;99.90
23629;DHT22;11991;57.150;-2.134;2023-02-12T09:28:54;8.00;99.90
23629;DHT22;11991;57.150;-2.134;2023-02-12T09:31:29;8.00;99.90
23629;DHT22;11991;57.150;-2.134;2023-02-12T09:34:04;8.10;99.90
23629;DHT22;11991;57.150;-2.134;2023-02-12T09:36:32;8.20;99.90
23629;DHT22;11991;57.150;-2.134;2023-02-12T09:38:59;8.20;99.90
23629;DHT22;11991;57.150;-2.134;2023-02-12T09:44:26;8.20;99.90
23629;DHT22;11991;57.150;-2.134;2023-02-12T09:47:13;8.30;99.90
23629;DHT22;11991;57.150;-2.134;2023-02-12T09:50:11;8.30;99.90
23629;DHT22;11991;57.150;-2.134;2023-02-12T09:52:44;8.40;99.90
23629;DHT22;11991;57.150;-2.134;2023-02-12T09:55:16;8.40;99.90
23629;DHT22;11991;57.150;-2.134;2023-02-12T09:57:45;8.50;99.90
23629;DHT22;11991;57.150;-2.134;2023-02-12T10:00:23;8.50;99.90
23629;DHT22;11991;57.150;-2.134;2023-02-12T10:02:52;8.60;99.90
23629;DHT22;11991;57.150;-2.134;2023-02-12T10:05:41;8.60;99.90
23629;DHT22;11991;57.150;-2.134;2023-02-12T10:09:18;8.70;99.90
23629;DHT22;11991;57.150;-2.134;2023-02-12T10:14:17;8.80;99.90
23629;DHT22;11991;57.150;-2.134;2023-02-12T10:25:56;9.00;99.90
23629;DHT22;11991;57.150;-2.134;2023-02-12T10:28:47;9.10;99.90
23629;DHT22;11991;57.150;-2.134;2023-02-12T10:31:35;9.10;99.90
23629;DHT22;11991;57.150;-2.134;2023-02-12T10:34:19;9.20;99.90
23629;DHT22;11991;57.150;-2.134;2023-02-12T10:36:51;9.20;99.90
23629;DHT22;11991;57.150;-2.134;2023-02-12T10:39:24;9.30;99.90
23629;DHT22;11991;57.150;-2.134;2023-02-12T10:42:15;9.30;99.90
23629;DHT22;11991;57.150;-2.134;2023-02-12T10:44:42;9.40;99.90
23629;DHT22;11991;57.150;-2.134;2023-02-12T10:47:17;9.40;99.90
23629;DHT22;11991;57.150;-2.134;2023-02-12T10:50:49;9.50;99.90
23629;DHT22;11991;57.150;-2.134;2023-02-12T10:52:46;9.50;99.90
23629;DHT22;11991;57.150;-2.134;2023-02-12T10:57:55;9.60;99.90
23629;DHT22;11991;57.150;-2.134;2023-02-12T11:00:30;9.60;99.90
23629;DHT22;11991;57.150;-2.134;2023-02-12T11:05:42;9.70;99.90
23629;DHT22;11991;57.150;-2.134;2023-02-12T11:08:39;9.80;99.90
23629;DHT22;11991;57.150;-2.134;2023-02-12T11:14:13;9.90;99.90
23629;DHT22;11991;57.150;-2.134;2023-02-12T11:17:00;9.90;99.90
23629;DHT22;11991;57.150;-2.134;2023-02-12T11:19:30;9.90;99.90
23629;DHT22;11991;57.150;-2.134;2023-02-12T11:22:09;9.90;99.90
23629;DHT22;11991;57.150;-2.134;2023-02-12T11:24:37;10.00;99.90
23629;DHT22;11991;57.150;-2.134;2023-02-12T11:27:23;10.00;99.90
23629;DHT22;11991;57.150;-2.134;2023-02-12T11:32:38;10.10;99.90
23629;DHT22;11991;57.150;-2.134;2023-02-12T11:35:13;10.10;99.90
23629;DHT22;11991;57.150;-2.134;2023-02-12T11:37:42;10.20;99.90
23629;DHT22;11991;57.150;-2.134;2023-02-12T11:40:33;10.20;99.90
23629;DHT22;11991;57.150;-2.134;2023-02-12T11:43:05;10.20;99.90
23629;DHT22;11991;57.150;-2.134;2023-02-12T11:45:43;10.30;99.90
23629;DHT22;11991;57.150;-2.134;2023-02-12T11:48:38;10.30;99.90
23629;DHT22;11991;57.150;-2.134;2023-02-12T11:51:08;10.30;99.90
23629;DHT22;11991;57.150;-2.134;2023-02-12T11:53:40;10.30;99.90
23629;DHT22;11991;57.150;-2.134;2023-02-12T11:56:11;10.30;99.90
23629;DHT22;11991;57.150;-2.134;2023-02-12T11:58:39;10.40;99.90
23629;DHT22;11991;57.150;-2.134;2023-02-12T12:01:11;10.40;99.90
23629;DHT22;11991;57.150;-2.134;2023-02-12T12:04:04;10.40;99.90
23629;DHT22;11991;57.150;-2.134;2023-02-12T12:06:44;10.40;99.90
23629;DHT22;11991;57.150;-2.134;2023-02-12T12:09:35;10.40;99.90
23629;DHT22;11991;57.150;-2.134;2023-02-12T12:17:59;10.40;99.90
23629;DHT22;11991;57.150;-2.134;2023-02-12T12:21:02;10.40;99.90
23629;DHT22;11991;57.150;-2.134;2023-02-12T12:23:38;10.40;99.90
23629;DHT22;11991;57.150;-2.134;2023-02-12T12:26:12;10.50;99.90
23629;DHT22;11991;57.150;-2.134;2023-02-12T12:28:51;10.40;99.90
23629;DHT22;11991;57.150;-2.134;2023-02-12T12:31:42;10.50;99.90
23629;DHT22;11991;57.150;-2.134;2023-02-12T12:34:21;10.50;99.90
23629;DHT22;11991;57.150;-2.134;2023-02-12T12:46:14;10.60;99.90
23629;DHT22;11991;57.150;-2.134;2023-02-12T12:48:57;10.60;99.90
23629;DHT22;11991;57.150;-2.134;2023-02-12T12:54:32;10.70;99.90
23629;DHT22;11991;57.150;-2.134;2023-02-12T13:00:20;10.70;99.90
23629;DHT22;11991;57.150;-2.134;2023-02-12T13:08:38;10.80;99.90
23629;DHT22;11991;57.150;-2.134;2023-02-12T13:13:51;10.90;99.90
23629;DHT22;11991;57.150;-2.134;2023-02-12T13:16:29;10.90;99.90
23629;DHT22;11991;57.150;-2.134;2023-02-12T13:19:14;11.00;99.90
23629;DHT22;11991;57.150;-2.134;2023-02-12T13:21:54;11.00;99.90
23629;DHT22;11991;57.150;-2.134;2023-02-12T13:24:51;11.00;99.90
23629;DHT22;11991;57.150;-2.134;2023-02-12T13:27:27;11.10;99.90
23629;DHT22;11991;57.150;-2.134;2023-02-12T13:30:04;11.20;99.90
23629;DHT22;11991;57.150;-2.134;2023-02-12T13:35:28;11.40;99.90
23629;DHT22;11991;57.150;-2.134;2023-02-12T13:37:56;11.40;99.90
23629;DHT22;11991;57.150;-2.134;2023-02-12T13:40:29;11.50;99.90
23629;DHT22;11991;57.150;-2.134;2023-02-12T13:49:09;11.60;99.90
23629;DHT22;11991;57.150;-2.134;2023-02-12T13:54:47;11.70;99.90
23629;DHT22;11991;57.150;-2.134;2023-02-12T13:57:17;11.60;99.90
23629;DHT22;11991;57.150;-2.134;2023-02-12T13:59:50;11.60;99.90
23629;DHT22;11991;57.150;-2.134;2023-02-12T14:04:56;11.70;99.90
23629;DHT22;11991;57.150;-2.134;2023-02-12T14:07:53;11.70;99.90
23629;DHT22;11991;57.150;-2.134;2023-02-12T14:13:18;11.80;99.90
23629;DHT22;11991;57.150;-2.134;2023-02-12T14:15:52;11.80;99.90
23629;DHT22;11991;57.150;-2.134;2023-02-12T14:23:40;11.60;99.90
23629;DHT22;11991;57.150;-2.134;2023-02-12T14:26:14;11.60;99.90
23629;DHT22;11991;57.150;-2.134;2023-02-12T14:28:45;11.50;99.90
23629;DHT22;11991;57.150;-2.134;2023-02-12T14:31:21;11.40;99.90
23629;DHT22;11991;57.150;-2.134;2023-02-12T14:39:27;11.40;99.90
23629;DHT22;11991;57.150;-2.134;2023-02-12T14:44:47;11.40;99.90
23629;DHT22;11991;57.150;-2.134;2023-02-12T14:49:58;11.30;99.90
23629;DHT22;11991;57.150;-2.134;2023-02-12T14:52:37;11.30;99.90
23629;DHT22;11991;57.150;-2.134;2023-02-12T14:55:19;11.30;99.90
23629;DHT22;11991;57.150;-2.134;2023-02-12T14:57:47;11.30;99.90
23629;DHT22;11991;57.150;-2.134;2023-02-12T15:00:28;11.30;99.90
23629;DHT22;11991;57.150;-2.134;2023-02-12T15:05:31;11.40;99.90
23629;DHT22;11991;57.150;-2.134;2023-02-12T15:08:25;11.40;99.90
23629;DHT22;11991;57.150;-2.134;2023-02-12T15:11:22;11.40;99.90
23629;DHT22;11991;57.150;-2.134;2023-02-12T15:14:06;11.40;99.90
23629;DHT22;11991;57.150;-2.134;2023-02-12T15:21:51;11.20;99.90
23629;DHT22;11991;57.150;-2.134;2023-02-12T15:24:23;11.20;99.90
23629;DHT22;11991;57.150;-2.134;2023-02-12T15:26:55;11.00;99.90
23629;DHT22;11991;57.150;-2.134;2023-02-12T15:29:40;11.00;99.90
23629;DHT22;11991;57.150;-2.134;2023-02-12T15:32:17;10.90;99.90
23629;DHT22;11991;57.150;-2.134;2023-02-12T15:34:48;10.90;99.90
23629;DHT22;11991;57.150;-2.134;2023-02-12T15:37:42;10.80;99.90
23629;DHT22;11991;57.150;-2.134;2023-02-12T15:40:14;10.80;99.90
23629;DHT22;11991;57.150;-2.134;2023-02-12T15:42:57;10.70;99.90
23629;DHT22;11991;57.150;-2.134;2023-02-12T15:45:29;10.70;99.90
23629;DHT22;11991;57.150;-2.134;2023-02-12T15:50:34;10.80;99.90
23629;DHT22;11991;57.150;-2.134;2023-02-12T15:53:02;10.80;99.90
23629;DHT22;11991;57.150;-2.134;2023-02-12T15:55:42;10.80;99.90
23629;DHT22;11991;57.150;-2.134;2023-02-12T16:01:02;10.80;99.90
23629;DHT22;11991;57.150;-2.134;2023-02-12T16:03:32;10.70;99.90
23629;DHT22;11991;57.150;-2.134;2023-02-12T16:06:12;10.70;99.90
23629;DHT22;11991;57.150;-2.134;2023-02-12T16:08:40;10.50;99.90
23629;DHT22;11991;57.150;-2.134;2023-02-12T16:11:09;10.60;99.90
23629;DHT22;11991;57.150;-2.134;2023-02-12T16:13:46;10.60;99.90
23629;DHT22;11991;57.150;-2.134;2023-02-12T16:16:19;10.50;99.90
23629;DHT22;11991;57.150;-2.134;2023-02-12T16:19:17;10.50;99.90
23629;DHT22;11991;57.150;-2.134;2023-02-12T16:22:09;10.50;99.90
23629;DHT22;11991;57.150;-2.134;2023-02-12T16:24:37;10.50;99.90
23629;DHT22;11991;57.150;-2.134;2023-02-12T16:27:26;10.40;99.90
23629;DHT22;11991;57.150;-2.134;2023-02-12T16:30:00;10.40;99.90
23629;DHT22;11991;57.150;-2.134;2023-02-12T16:32:39;10.30;99.90
23629;DHT22;11991;57.150;-2.134;2023-02-12T16:50:55;10.00;99.90
23629;DHT22;11991;57.150;-2.134;2023-02-12T16:55:57;9.90;99.90
23629;DHT22;11991;57.150;-2.134;2023-02-12T16:58:25;9.90;99.90
23629;DHT22;11991;57.150;-2.134;2023-02-12T17:00:54;9.80;99.90
23629;DHT22;11991;57.150;-2.134;2023-02-12T17:03:23;9.80;99.90
23629;DHT22;11991;57.150;-2.134;2023-02-12T17:05:50;9.80;99.90
23629;DHT22;11991;57.150;-2.134;2023-02-12T17:08:22;9.80;99.90
23629;DHT22;11991;57.150;-2.134;2023-02-12T17:10:50;9.70;99.90
23629;DHT22;11991;57.150;-2.134;2023-02-12T17:13:18;9.70;99.90
23629;DHT22;11991;57.150;-2.134;2023-02-12T17:15:51;9.70;99.90
23629;DHT22;11991;57.150;-2.134;2023-02-12T17:18:19;9.60;99.90
23629;DHT22;11991;57.150;-2.134;2023-02-12T17:20:52;9.60;99.90
23629;DHT22;11991;57.150;-2.134;2023-02-12T17:23:21;9.60;99.90
23629;DHT22;11991;57.150;-2.134;2023-02-12T17:25:49;9.60;99.90
23629;DHT22;11991;57.150;-2.134;2023-02-12T17:28:16;9.50;99.90
23629;DHT22;11991;57.150;-2.134;2023-02-12T17:30:44;9.50;99.90
23629;DHT22;11991;57.150;-2.134;2023-02-12T17:33:11;9.50;99.90
23629;DHT22;11991;57.150;-2.134;2023-02-12T17:35:39;9.50;99.90
23629;DHT22;11991;57.150;-2.134;2023-02-12T17:38:06;9.50;99.90
23629;DHT22;11991;57.150;-2.134;2023-02-12T17:40:35;9.50;99.90
23629;DHT22;11991;57.150;-2.134;2023-02-12T17:43:03;9.40;99.90
23629;DHT22;11991;57.150;-2.134;2023-02-12T17:45:31;9.40;99.90
23629;DHT22;11991;57.150;-2.134;2023-02-12T17:47:58;9.40;99.90
23629;DHT22;11991;57.150;-2.134;2023-02-12T17:50:25;9.40;99.90
23629;DHT22;11991;57.150;-2.134;2023-02-12T17:52:53;9.40;99.90
23629;DHT22;11991;57.150;-2.134;2023-02-12T17:55:20;9.30;99.90
23629;DHT22;11991;57.150;-2.134;2023-02-12T17:57:51;9.30;99.90
23629;DHT22;11991;57.150;-2.134;2023-02-12T18:00:20;9.30;99.90
23629;DHT22;11991;57.150;-2.134;2023-02-12T18:02:48;9.30;99.90
23629;DHT22;11991;57.150;-2.134;2023-02-12T18:05:16;9.30;99.90
23629;DHT22;11991;57.150;-2.134;2023-02-12T18:07:43;9.30;99.90
23629;DHT22;11991;57.150;-2.134;2023-02-12T18:10:10;9.20;99.90
23629;DHT22;11991;57.150;-2.134;2023-02-12T18:12:38;9.20;99.90
23629;DHT22;11991;57.150;-2.134;2023-02-12T18:15:06;9.20;99.90
23629;DHT22;11991;57.150;-2.134;2023-02-12T18:17:34;9.20;99.90
23629;DHT22;11991;57.150;-2.134;2023-02-12T18:20:02;9.30;99.90
23629;DHT22;11991;57.150;-2.134;2023-02-12T18:22:32;9.20;99.90
23629;DHT22;11991;57.150;-2.134;2023-02-12T18:24:59;9.30;99.90
23629;DHT22;11991;57.150;-2.134;2023-02-12T18:27:27;9.30;99.90
23629;DHT22;11991;57.150;-2.134;2023-02-12T18:29:54;9.30;99.90
23629;DHT22;11991;57.150;-2.134;2023-02-12T18:32:22;9.30;99.90
23629;DHT22;11991;57.150;-2.134;2023-02-12T18:34:50;9.30;99.90
23629;DHT22;11991;57.150;-2.134;2023-02-12T18:37:17;9.30;99.90
23629;DHT22;11991;57.150;-2.134;2023-02-12T18:39:44;9.20;99.90
23629;DHT22;11991;57.150;-2.134;2023-02-12T18:42:12;9.20;99.90